Time;durP1;ratioP1;P1;durP2;ratioP2;P2;SDS_P1;SDS_P2;PMS_P1;PMS_P2;Temp;Humidity;BMP_temperature;BMP_pressure;BME280_temperature;BME280_humidity;BME280_pressure;Samples;Min_cycle;Max_cycle;Signal;HPM_P1;HPM_P2
2023/07/31 00:01:34;;;;;;;13.20;5.13;;;17.00;99.90;;;;;;5030373;28;20213;-65
2023/07/31 00:04:02;;;;;;;18.03;6.03;;;17.00;99.90;;;;;;5030614;28;20236;-65
2023/07/31 00:06:31;;;;;;;12.40;5.70;;;17.10;99.90;;;;;;5023883;28;20220;-64
2023/07/31 00:08:59;;;;;;;25.30;6.13;;;17.10;99.90;;;;;;5028257;28;20225;-64
2023/07/31 00:11:27;;;;;;;18.97;6.03;;;17.10;99.90;;;;;;5022689;28;20200;-65
2023/07/31 00:13:56;;;;;;;16.90;5.53;;;17.10;99.90;;;;;;5030234;28;20280;-65
2023/07/31 00:16:25;;;;;;;12.10;5.20;;;17.10;99.90;;;;;;5026726;28;20217;-64
2023/07/31 00:18:54;;;;;;;20.93;6.23;;;17.10;99.90;;;;;;5008149;28;20652;-64
2023/07/31 00:21:22;;;;;;;17.33;5.27;;;17.10;99.90;;;;;;5018587;28;20221;-65
2023/07/31 00:23:51;;;;;;;13.70;5.60;;;17.10;99.90;;;;;;5024701;28;20238;-65
2023/07/31 00:26:19;;;;;;;14.10;5.37;;;17.20;99.90;;;;;;5024852;28;20640;-64
2023/07/31 00:28:47;;;;;;;15.27;5.70;;;17.20;99.90;;;;;;5030427;28;20275;-65
2023/07/31 00:31:15;;;;;;;15.00;5.30;;;17.20;99.90;;;;;;5028335;28;20216;-65
2023/07/31 00:33:45;;;;;;;14.43;5.27;;;17.10;99.90;;;;;;5021670;28;20322;-65
2023/07/31 00:36:13;;;;;;;16.50;5.50;;;17.10;99.90;;;;;;5024044;28;20229;-64
2023/07/31 00:38:41;;;;;;;19.17;5.70;;;17.10;99.90;;;;;;5025179;28;20231;-65
2023/07/31 00:41:10;;;;;;;15.07;5.43;;;17.10;99.90;;;;;;5026964;28;20197;-63
2023/07/31 00:43:38;;;;;;;14.07;5.63;;;17.10;99.90;;;;;;5028303;28;20231;-64
2023/07/31 00:46:07;;;;;;;15.03;4.90;;;17.10;99.90;;;;;;5027957;28;20740;-64
2023/07/31 00:48:36;;;;;;;15.63;4.90;;;17.10;99.90;;;;;;5023934;28;20223;-64
2023/07/31 00:51:06;;;;;;;15.93;6.00;;;17.10;99.90;;;;;;5029248;28;20232;-64
2023/07/31 00:53:35;;;;;;;19.77;6.10;;;17.10;99.90;;;;;;5029232;28;20228;-65
2023/07/31 00:56:05;;;;;;;16.70;5.13;;;17.10;99.90;;;;;;5027626;28;20196;-64
2023/07/31 00:58:33;;;;;;;15.70;5.07;;;17.10;99.90;;;;;;5010289;28;20220;-64
2023/07/31 01:01:02;;;;;;;20.27;5.73;;;17.10;99.90;;;;;;5026169;28;20224;-64
2023/07/31 01:03:30;;;;;;;16.47;5.50;;;17.10;99.90;;;;;;5030123;28;20231;-65
2023/07/31 01:06:11;;;;;;;16.03;5.20;;;17.10;99.90;;;;;;5029073;28;20920;-64
2023/07/31 01:08:45;;;;;;;19.50;5.30;;;17.10;99.90;;;;;;5028375;28;20225;-64
2023/07/31 01:11:18;;;;;;;15.57;5.33;;;17.10;99.90;;;;;;5032185;28;20189;-64
2023/07/31 01:13:47;;;;;;;18.07;5.20;;;17.20;99.90;;;;;;5030407;28;20192;-64
2023/07/31 01:16:15;;;;;;;16.73;5.47;;;17.20;99.90;;;;;;5029441;28;20600;-65
2023/07/31 01:18:44;;;;;;;11.10;4.63;;;17.20;99.90;;;;;;5030142;28;20268;-65
2023/07/31 01:21:24;;;;;;;17.80;5.60;;;17.20;99.90;;;;;;5027266;28;20227;-64
2023/07/31 01:24:08;;;;;;;14.17;4.87;;;17.20;99.90;;;;;;5026003;28;20228;-65
2023/07/31 01:26:40;;;;;;;10.67;4.87;;;17.20;99.90;;;;;;5027773;28;20725;-64
2023/07/31 01:29:17;;;;;;;12.70;4.90;;;17.30;99.90;;;;;;5032268;28;20204;-65
2023/07/31 01:31:51;;;;;;;20.03;5.50;;;17.20;99.90;;;;;;5033186;28;20242;-65
2023/07/31 01:34:21;;;;;;;16.47;5.17;;;17.20;99.90;;;;;;5029433;28;20236;-64
2023/07/31 01:36:49;;;;;;;16.73;5.40;;;17.20;99.90;;;;;;5030475;28;20226;-65
2023/07/31 01:39:18;;;;;;;14.97;5.20;;;17.20;99.90;;;;;;5030354;28;20223;-65
2023/07/31 01:41:47;;;;;;;11.30;4.43;;;17.30;99.90;;;;;;5023802;28;20227;-65
2023/07/31 01:44:16;;;;;;;13.00;5.30;;;17.30;99.90;;;;;;5028872;28;20201;-63
2023/07/31 01:46:44;;;;;;;12.70;4.80;;;17.40;99.90;;;;;;5032406;28;20271;-64
2023/07/31 01:49:12;;;;;;;12.93;5.50;;;17.30;99.90;;;;;;5029135;28;20223;-64
2023/07/31 01:51:41;;;;;;;19.27;5.13;;;17.30;99.90;;;;;;5029808;28;20694;-65
2023/07/31 01:54:09;;;;;;;13.03;5.00;;;17.40;99.90;;;;;;5029677;28;20220;-64
2023/07/31 01:56:37;;;;;;;14.93;5.30;;;17.40;99.90;;;;;;5031383;28;20241;-65
2023/07/31 01:59:08;;;;;;;12.40;4.77;;;17.40;99.90;;;;;;5030443;28;20189;-64
2023/07/31 02:01:36;;;;;;;9.43;5.00;;;17.40;99.90;;;;;;5030378;28;20221;-64
2023/07/31 02:04:04;;;;;;;17.07;5.50;;;17.30;99.90;;;;;;5031169;28;20228;-64
2023/07/31 02:06:33;;;;;;;25.40;5.53;;;17.40;99.90;;;;;;5029549;28;20217;-64
2023/07/31 02:09:01;;;;;;;17.90;5.17;;;17.40;99.90;;;;;;5027612;28;20232;-64
2023/07/31 02:11:30;;;;;;;11.37;5.07;;;17.40;99.90;;;;;;5030301;28;20229;-64
2023/07/31 02:13:58;;;;;;;13.03;4.87;;;17.30;99.90;;;;;;5031321;28;20199;-64
2023/07/31 02:16:28;;;;;;;11.77;4.50;;;17.30;99.90;;;;;;5029600;28;20705;-65
2023/07/31 02:18:56;;;;;;;15.43;5.40;;;17.30;99.90;;;;;;5030186;28;20674;-64
2023/07/31 02:21:24;;;;;;;15.73;5.30;;;17.30;99.90;;;;;;5023285;28;20236;-64
2023/07/31 02:23:52;;;;;;;10.93;4.83;;;17.30;99.90;;;;;;5028760;28;20715;-64
2023/07/31 02:26:21;;;;;;;14.73;5.13;;;17.30;99.90;;;;;;5030378;28;20204;-64
2023/07/31 02:28:49;;;;;;;18.30;4.93;;;17.20;99.90;;;;;;5030431;28;20551;-64
2023/07/31 02:31:18;;;;;;;13.87;5.53;;;17.20;99.90;;;;;;5024711;28;20232;-64
2023/07/31 02:33:51;;;;;;;16.50;5.37;;;17.20;99.90;;;;;;5030651;28;20227;-64
2023/07/31 02:36:19;;;;;;;13.50;5.57;;;17.30;99.90;;;;;;5027811;28;20217;-64
2023/07/31 02:38:48;;;;;;;17.23;5.50;;;17.30;99.90;;;;;;5030317;28;20224;-65
2023/07/31 02:41:16;;;;;;;18.00;5.70;;;17.30;99.90;;;;;;5007963;28;20197;-64
2023/07/31 02:43:44;;;;;;;13.00;5.50;;;17.30;99.90;;;;;;5028898;28;20236;-64
2023/07/31 02:46:12;;;;;;;13.13;5.33;;;17.30;99.90;;;;;;5028725;28;20228;-64
2023/07/31 02:48:41;;;;;;;14.20;5.20;;;17.30;99.90;;;;;;5022704;28;20228;-64
2023/07/31 02:51:11;;;;;;;14.67;5.70;;;17.30;99.90;;;;;;5012484;28;20224;-64
2023/07/31 02:53:39;;;;;;;13.57;5.53;;;17.30;99.90;;;;;;5027792;28;20232;-65
2023/07/31 02:56:07;;;;;;;13.37;5.50;;;17.30;99.90;;;;;;5025573;28;20228;-64
2023/07/31 02:58:36;;;;;;;12.60;5.60;;;17.30;99.90;;;;;;5026569;28;20316;-64
2023/07/31 03:01:04;;;;;;;13.20;5.67;;;17.30;99.90;;;;;;5025591;28;20233;-64
2023/07/31 03:03:32;;;;;;;20.37;5.87;;;17.30;99.90;;;;;;5009244;28;20312;-65
2023/07/31 03:06:01;;;;;;;23.30;6.03;;;17.40;99.90;;;;;;5028963;28;20214;-64
2023/07/31 03:08:30;;;;;;;11.50;5.60;;;17.40;99.90;;;;;;5029866;28;20190;-64
2023/07/31 03:10:58;;;;;;;12.93;5.50;;;17.30;99.90;;;;;;5027469;28;20575;-64
2023/07/31 03:13:28;;;;;;;12.83;5.77;;;17.40;99.90;;;;;;5028985;28;20220;-64
2023/07/31 03:15:56;;;;;;;11.20;5.53;;;17.30;99.90;;;;;;5024508;28;20221;-64
2023/07/31 03:18:24;;;;;;;11.43;5.20;;;17.30;99.90;;;;;;5024329;28;20224;-65
2023/07/31 03:20:53;;;;;;;7.40;4.90;;;17.30;99.90;;;;;;5022609;28;20217;-65
2023/07/31 03:23:21;;;;;;;8.43;5.30;;;17.30;99.90;;;;;;5007153;28;20209;-64
2023/07/31 03:26:08;;;;;;;13.73;5.50;;;17.30;99.90;;;;;;5025915;28;20229;-64
2023/07/31 03:28:37;;;;;;;13.77;5.47;;;17.30;99.90;;;;;;5028041;28;20217;-65
2023/07/31 03:31:05;;;;;;;11.17;5.67;;;17.30;99.90;;;;;;5027336;28;20240;-65
2023/07/31 03:33:33;;;;;;;9.77;5.43;;;17.20;99.90;;;;;;5024566;28;20209;-65
2023/07/31 03:36:03;;;;;;;11.37;5.80;;;17.20;99.90;;;;;;5026193;28;20232;-65
2023/07/31 03:38:31;;;;;;;13.43;5.80;;;17.10;99.90;;;;;;5027813;28;20231;-65
2023/07/31 03:40:59;;;;;;;6.20;4.97;;;17.10;99.90;;;;;;5008735;28;20685;-66
2023/07/31 03:43:29;;;;;;;9.80;5.53;;;17.00;99.90;;;;;;5028963;28;20292;-65
2023/07/31 03:45:57;;;;;;;9.53;5.07;;;17.00;99.90;;;;;;5024828;28;20218;-66
2023/07/31 03:48:28;;;;;;;13.87;5.27;;;17.00;99.90;;;;;;5028094;28;20671;-65
2023/07/31 03:50:56;;;;;;;11.07;5.50;;;17.00;99.90;;;;;;5021422;28;20232;-66
2023/07/31 03:53:25;;;;;;;10.63;4.90;;;16.90;99.90;;;;;;5011731;28;20193;-65
2023/07/31 03:55:53;;;;;;;11.70;5.57;;;16.90;99.90;;;;;;5011459;28;20200;-65
2023/07/31 03:58:21;;;;;;;11.37;6.07;;;16.90;99.90;;;;;;5027992;28;20794;-65
2023/07/31 04:00:51;;;;;;;16.00;5.83;;;16.80;99.90;;;;;;5029286;28;20689;-65
2023/07/31 04:03:19;;;;;;;8.73;5.50;;;16.80;99.90;;;;;;5027013;28;20306;-65
2023/07/31 04:05:48;;;;;;;16.03;6.40;;;16.80;99.90;;;;;;5007869;28;20225;-65
2023/07/31 04:08:16;;;;;;;8.77;6.63;;;16.80;99.90;;;;;;5030239;28;20665;-65
2023/07/31 04:10:44;;;;;;;12.37;6.50;;;16.70;99.90;;;;;;5022939;28;20564;-65
2023/07/31 04:13:14;;;;;;;12.03;6.57;;;16.70;99.90;;;;;;5029083;28;20225;-65
2023/07/31 04:15:43;;;;;;;10.77;5.90;;;16.70;99.90;;;;;;5030143;28;20217;-65
2023/07/31 04:18:13;;;;;;;11.07;6.13;;;16.70;99.90;;;;;;5027034;28;20235;-65
2023/07/31 04:20:41;;;;;;;11.83;6.70;;;16.70;99.90;;;;;;5026320;28;20227;-65
2023/07/31 04:23:09;;;;;;;13.93;6.80;;;16.70;99.90;;;;;;5006885;28;20208;-59
2023/07/31 04:25:38;;;;;;;9.00;6.30;;;16.70;99.90;;;;;;5029802;28;20211;-65
2023/07/31 04:28:07;;;;;;;11.80;6.03;;;16.70;99.90;;;;;;5026413;28;20216;-65
2023/07/31 04:30:36;;;;;;;11.67;6.90;;;16.70;99.90;;;;;;5028756;28;20213;-65
2023/07/31 04:33:04;;;;;;;9.27;6.20;;;16.70;99.90;;;;;;5024587;28;20221;-65
2023/07/31 04:35:34;;;;;;;9.77;6.30;;;16.70;99.90;;;;;;5026319;28;20228;-65
2023/07/31 04:38:03;;;;;;;9.50;6.57;;;16.70;99.90;;;;;;5028363;28;20658;-65
2023/07/31 04:40:31;;;;;;;10.93;6.40;;;16.70;99.90;;;;;;5022344;28;20228;-66
2023/07/31 04:42:59;;;;;;;11.30;6.07;;;16.70;99.90;;;;;;5027946;28;20571;-65
2023/07/31 04:45:27;;;;;;;12.03;6.40;;;16.70;99.90;;;;;;5033527;28;20224;-66
2023/07/31 04:47:55;;;;;;;9.07;6.10;;;16.70;99.90;;;;;;5036507;28;20235;-66
2023/07/31 04:50:24;;;;;;;11.63;6.53;;;16.70;99.90;;;;;;5034070;28;20299;-66
2023/07/31 04:52:53;;;;;;;14.70;6.57;;;16.70;99.90;;;;;;5037513;28;20189;-66
2023/07/31 04:55:22;;;;;;;15.30;6.10;;;16.60;99.90;;;;;;5036132;28;20254;-65
2023/07/31 04:57:50;;;;;;;11.13;6.50;;;16.60;99.90;;;;;;5016513;28;20227;-66
2023/07/31 05:00:20;;;;;;;16.10;6.77;;;16.60;99.90;;;;;;5032408;28;20229;-65
2023/07/31 05:02:48;;;;;;;14.73;6.47;;;16.60;99.90;;;;;;5018117;28;20226;-65
2023/07/31 05:05:16;;;;;;;7.90;6.40;;;16.60;99.90;;;;;;5016379;28;20224;-65
2023/07/31 05:07:45;;;;;;;9.57;6.47;;;16.60;99.90;;;;;;5037486;28;20200;-65
2023/07/31 05:10:14;;;;;;;11.47;7.13;;;16.60;99.90;;;;;;5036265;28;20306;-65
2023/07/31 05:12:43;;;;;;;10.67;6.63;;;16.60;99.90;;;;;;5035915;28;20226;-65
2023/07/31 05:15:11;;;;;;;12.23;7.40;;;16.60;99.90;;;;;;5015426;28;20318;-65
2023/07/31 05:17:40;;;;;;;12.53;7.23;;;16.60;99.90;;;;;;5030194;28;20714;-65
2023/07/31 05:20:09;;;;;;;7.53;6.57;;;16.60;99.90;;;;;;5031592;28;20200;-65
2023/07/31 05:22:38;;;;;;;12.67;6.80;;;16.60;99.90;;;;;;5033489;28;20678;-65
2023/07/31 05:25:07;;;;;;;12.30;7.20;;;16.50;99.90;;;;;;5022763;28;20220;-65
2023/07/31 05:27:37;;;;;;;12.40;7.27;;;16.50;99.90;;;;;;5031957;28;20230;-65
2023/07/31 05:30:06;;;;;;;14.00;7.40;;;16.60;99.90;;;;;;5032437;28;20630;-65
2023/07/31 05:32:35;;;;;;;12.47;7.17;;;16.60;99.90;;;;;;5034428;28;20679;-65
2023/07/31 05:35:03;;;;;;;12.80;7.07;;;16.60;99.90;;;;;;5030208;28;20629;-65
2023/07/31 05:37:32;;;;;;;13.10;6.80;;;16.60;99.90;;;;;;5031510;28;20228;-65
2023/07/31 05:40:00;;;;;;;12.97;6.27;;;16.50;99.90;;;;;;5035891;28;20701;-65
2023/07/31 05:42:29;;;;;;;13.47;6.37;;;16.50;99.90;;;;;;5033427;28;20240;-65
2023/07/31 05:44:59;;;;;;;10.07;6.43;;;16.50;99.90;;;;;;5016787;28;20227;-65
2023/07/31 05:47:27;;;;;;;10.27;6.17;;;16.60;99.90;;;;;;5031670;28;20666;-65
2023/07/31 05:49:55;;;;;;;11.40;6.03;;;16.50;99.90;;;;;;5032945;28;20199;-65
2023/07/31 05:52:24;;;;;;;14.60;5.80;;;16.60;99.90;;;;;;5033800;28;20228;-65
2023/07/31 05:54:52;;;;;;;9.77;5.20;;;16.60;99.90;;;;;;5035304;28;20234;-65
2023/07/31 05:57:21;;;;;;;10.77;5.57;;;16.60;99.90;;;;;;5012652;28;20224;-64
2023/07/31 05:59:49;;;;;;;11.80;5.10;;;16.60;99.90;;;;;;5030958;28;20690;-65
2023/07/31 06:02:19;;;;;;;8.60;5.07;;;16.70;99.90;;;;;;5028461;28;20208;-65
2023/07/31 06:04:47;;;;;;;4.90;4.40;;;16.60;99.90;;;;;;5029813;28;20187;-65
2023/07/31 06:07:16;;;;;;;18.07;5.10;;;16.60;99.90;;;;;;5029064;28;20220;-65
2023/07/31 06:09:44;;;;;;;9.90;5.33;;;16.70;99.90;;;;;;5025970;28;20224;-65
2023/07/31 06:12:12;;;;;;;6.07;4.63;;;16.70;99.90;;;;;;5028992;28;20228;-65
2023/07/31 06:14:41;;;;;;;5.60;4.23;;;16.80;99.90;;;;;;5020884;28;20219;-65
2023/07/31 06:17:09;;;;;;;4.77;4.30;;;16.80;99.90;;;;;;5022849;28;20206;-65
2023/07/31 06:19:38;;;;;;;13.10;5.30;;;16.90;99.90;;;;;;5025852;28;20313;-65
2023/07/31 06:22:07;;;;;;;7.13;4.50;;;16.90;99.90;;;;;;5030141;28;20228;-65
2023/07/31 06:24:35;;;;;;;6.10;4.37;;;16.90;99.90;;;;;;5027043;28;20750;-65
2023/07/31 06:27:04;;;;;;;5.43;4.50;;;17.00;99.90;;;;;;5021466;28;21709;-64
2023/07/31 06:29:32;;;;;;;6.00;4.60;;;17.00;99.90;;;;;;5027752;28;20243;-65
2023/07/31 06:32:01;;;;;;;9.80;4.60;;;17.00;99.90;;;;;;5032956;28;20690;-64
2023/07/31 06:34:31;;;;;;;4.73;4.20;;;17.10;99.90;;;;;;5028364;28;20279;-65
2023/07/31 06:37:01;;;;;;;5.87;4.17;;;17.10;99.90;;;;;;5025239;28;20224;-64
2023/07/31 06:39:29;;;;;;;6.63;4.80;;;17.10;99.90;;;;;;5020273;28;20222;-64
2023/07/31 06:41:58;;;;;;;8.23;4.43;;;17.20;99.90;;;;;;5025820;28;20226;-64
2023/07/31 06:44:26;;;;;;;8.63;4.10;;;17.30;99.90;;;;;;5029791;28;20189;-64
2023/07/31 06:46:54;;;;;;;8.50;4.13;;;17.40;99.90;;;;;;5031577;28;20690;-64
2023/07/31 06:49:22;;;;;;;5.47;3.87;;;17.50;99.90;;;;;;5020447;28;20899;-64
2023/07/31 06:51:51;;;;;;;6.10;3.80;;;17.60;99.90;;;;;;5026685;28;20218;-64
2023/07/31 06:54:20;;;;;;;6.13;3.93;;;17.70;99.90;;;;;;5027958;28;20247;-64
2023/07/31 06:56:49;;;;;;;6.63;3.93;;;17.70;99.90;;;;;;5023980;28;20225;-64
2023/07/31 06:59:17;;;;;;;4.90;3.83;;;17.70;99.90;;;;;;5019127;28;20196;-64
2023/07/31 07:01:45;;;;;;;6.87;4.20;;;17.70;99.90;;;;;;5017558;28;20201;-64
2023/07/31 07:04:15;;;;;;;8.00;4.10;;;17.80;99.90;;;;;;5026187;28;20224;-64
2023/07/31 07:06:43;;;;;;;6.40;3.70;;;17.80;99.90;;;;;;5026011;28;20229;-64
2023/07/31 07:09:11;;;;;;;6.40;4.23;;;17.80;99.90;;;;;;5020470;28;20217;-64
2023/07/31 07:11:41;;;;;;;4.90;3.63;;;17.70;99.90;;;;;;5021539;28;20584;-64
2023/07/31 07:14:10;;;;;;;8.87;4.37;;;17.70;99.90;;;;;;5021952;28;20202;-62
2023/07/31 07:16:40;;;;;;;4.80;4.17;;;17.70;99.90;;;;;;5012102;28;20186;-64
2023/07/31 07:19:09;;;;;;;9.70;3.90;;;17.70;99.90;;;;;;5021046;28;20219;-64
2023/07/31 07:21:38;;;;;;;9.77;4.00;;;17.70;99.90;;;;;;5033709;28;20227;-64
2023/07/31 07:24:06;;;;;;;4.37;3.90;;;17.70;99.90;;;;;;5027016;28;20221;-64
2023/07/31 07:26:35;;;;;;;6.37;3.77;;;17.70;99.90;;;;;;5022880;28;20233;-64
2023/07/31 07:29:07;;;;;;;6.90;3.93;;;17.70;99.90;;;;;;5030116;28;20250;-64
2023/07/31 07:31:36;;;;;;;5.37;3.80;;;17.70;99.90;;;;;;5027657;28;20205;-64
2023/07/31 07:34:04;;;;;;;4.30;3.90;;;17.80;99.90;;;;;;5028770;28;20225;-64
2023/07/31 07:36:33;;;;;;;11.60;4.20;;;17.90;99.90;;;;;;5029110;28;20556;-64
2023/07/31 07:39:01;;;;;;;8.93;4.13;;;18.00;99.90;;;;;;5026026;28;20273;-64
2023/07/31 07:41:30;;;;;;;8.80;3.87;;;18.00;99.90;;;;;;5027397;28;20245;-64
2023/07/31 07:43:58;;;;;;;8.30;3.93;;;18.20;99.90;;;;;;5025790;28;20230;-64
2023/07/31 07:46:28;;;;;;;7.37;3.43;;;18.40;99.90;;;;;;5028308;28;20221;-64
2023/07/31 07:48:56;;;;;;;6.27;3.50;;;18.60;99.90;;;;;;5024893;28;21845;-63
2023/07/31 07:51:25;;;;;;;7.97;4.03;;;18.80;99.90;;;;;;5024867;28;20766;-64
2023/07/31 07:53:53;;;;;;;5.83;3.60;;;18.80;99.90;;;;;;5029889;28;20295;-64
2023/07/31 07:56:21;;;;;;;5.00;3.60;;;18.90;99.90;;;;;;5028123;28;20204;-63
2023/07/31 07:58:52;;;;;;;6.07;3.43;;;18.90;99.90;;;;;;5023557;28;20193;-64
2023/07/31 08:01:20;;;;;;;5.53;3.43;;;18.90;99.90;;;;;;5028366;28;20227;-64
2023/07/31 08:03:51;;;;;;;4.70;3.33;;;18.70;99.90;;;;;;5027601;28;20300;-64
2023/07/31 08:06:19;;;;;;;6.97;3.37;;;18.50;99.90;;;;;;5029001;28;20694;-64
2023/07/31 08:08:48;;;;;;;6.37;4.13;;;18.40;99.90;;;;;;5029707;28;20243;-64
2023/07/31 08:11:16;;;;;;;9.47;3.53;;;18.40;99.90;;;;;;5026643;28;20198;-63
2023/07/31 08:13:45;;;;;;;5.73;3.20;;;18.50;99.90;;;;;;5026494;28;20203;-64
2023/07/31 08:16:15;;;;;;;5.53;3.40;;;18.70;99.90;;;;;;5010324;28;20228;-64
2023/07/31 08:18:44;;;;;;;4.87;3.60;;;18.70;99.90;;;;;;5029826;28;20224;-64
2023/07/31 08:21:14;;;;;;;8.40;3.50;;;18.90;99.90;;;;;;5033478;28;20229;-64
2023/07/31 08:23:43;;;;;;;6.87;3.53;;;18.90;99.90;;;;;;5020728;28;20312;-64
2023/07/31 08:26:16;;;;;;;2.97;2.77;;;18.90;99.90;;;;;;5024476;28;20193;-63
2023/07/31 08:28:44;;;;;;;5.50;3.10;;;18.90;99.90;;;;;;5009250;28;20225;-64
2023/07/31 08:31:13;;;;;;;4.50;3.13;;;19.00;99.90;;;;;;5027988;28;20268;-65
2023/07/31 08:33:41;;;;;;;3.73;3.03;;;19.10;99.90;;;;;;5027208;28;20248;-64
2023/07/31 08:36:10;;;;;;;6.33;3.10;;;19.00;99.90;;;;;;5026419;28;20703;-65
2023/07/31 08:38:40;;;;;;;3.60;3.30;;;19.00;99.90;;;;;;5025245;28;20224;-64
2023/07/31 08:41:09;;;;;;;4.57;3.27;;;19.00;99.90;;;;;;5025563;28;20223;-64
2023/07/31 08:43:38;;;;;;;4.17;3.00;;;18.90;99.90;;;;;;5023079;28;20320;-64
2023/07/31 08:46:08;;;;;;;3.27;3.00;;;18.80;99.90;;;;;;5027828;28;20428;-64
2023/07/31 08:48:38;;;;;;;3.30;3.10;;;19.00;99.90;;;;;;5027743;28;20232;-64
2023/07/31 08:51:07;;;;;;;3.83;3.33;;;19.10;99.90;;;;;;5007641;28;20231;-64
2023/07/31 08:53:36;;;;;;;3.10;2.80;;;19.20;99.90;;;;;;5027817;28;20304;-64
2023/07/31 08:56:07;;;;;;;4.73;3.20;;;19.30;99.90;;;;;;5030712;28;20217;-64
2023/07/31 08:58:37;;;;;;;3.73;3.43;;;19.50;99.90;;;;;;5030439;28;20578;-64
2023/07/31 09:01:08;;;;;;;6.00;3.37;;;19.50;99.90;;;;;;5024265;28;20221;-64
2023/07/31 09:03:38;;;;;;;4.63;3.43;;;19.70;99.90;;;;;;5023226;28;20279;-64
2023/07/31 09:06:08;;;;;;;4.23;3.30;;;19.90;99.90;;;;;;5022938;28;20687;-64
2023/07/31 09:08:38;;;;;;;4.80;3.10;;;20.00;99.90;;;;;;5000851;28;20233;-64
2023/07/31 09:11:08;;;;;;;4.57;3.47;;;20.10;99.90;;;;;;5019973;28;20199;-64
2023/07/31 09:13:37;;;;;;;4.60;3.40;;;20.20;99.90;;;;;;5021639;28;20216;-64
2023/07/31 09:16:06;;;;;;;4.90;3.30;;;20.40;99.90;;;;;;5007017;28;20685;-63
2023/07/31 09:18:54;;;;;;;7.20;3.80;;;20.30;99.90;;;;;;5022978;28;20232;-64
2023/07/31 09:21:23;;;;;;;7.53;3.50;;;20.10;99.90;;;;;;5022534;28;20240;-64
2023/07/31 09:23:53;;;;;;;4.70;3.80;;;19.80;99.90;;;;;;5029173;28;20221;-64
2023/07/31 09:26:33;;;;;;;7.73;3.77;;;19.70;99.90;;;;;;5026853;28;20204;-64
2023/07/31 09:29:06;;;;;;;4.53;3.47;;;19.60;99.90;;;;;;5033639;28;20683;-64
2023/07/31 09:31:41;;;;;;;5.50;3.77;;;19.60;99.90;;;;;;5027954;28;20228;-64
2023/07/31 09:34:11;;;;;;;5.37;4.13;;;19.50;99.90;;;;;;5032155;28;20228;-64
2023/07/31 09:36:42;;;;;;;7.90;4.30;;;19.40;99.90;;;;;;5031592;28;20308;-64
2023/07/31 09:39:12;;;;;;;5.37;4.37;;;19.20;99.90;;;;;;5034411;28;20224;-64
2023/07/31 09:41:44;;;;;;;5.37;4.33;;;19.10;99.90;;;;;;5031066;28;20224;-63
2023/07/31 09:44:13;;;;;;;4.40;4.00;;;18.90;99.90;;;;;;5038700;28;20284;-64
2023/07/31 09:46:42;;;;;;;5.10;4.23;;;18.70;99.90;;;;;;5032101;28;20189;-65
2023/07/31 09:49:12;;;;;;;4.67;3.97;;;18.70;99.90;;;;;;5028466;28;20228;-64
2023/07/31 09:51:42;;;;;;;5.63;3.77;;;18.60;99.90;;;;;;5030521;28;20225;-64
2023/07/31 09:54:12;;;;;;;5.33;4.23;;;18.60;99.90;;;;;;5027736;28;20217;-64
2023/07/31 09:56:46;;;;;;;4.03;3.63;;;18.60;99.90;;;;;;5024826;28;20221;-64
2023/07/31 09:59:17;;;;;;;7.17;4.70;;;18.60;99.90;;;;;;5025017;28;20197;-64
2023/07/31 10:01:50;;;;;;;7.60;4.40;;;18.70;99.90;;;;;;5026087;28;20190;-64
2023/07/31 10:04:25;;;;;;;6.03;4.23;;;18.70;99.90;;;;;;5027696;28;20218;-64
2023/07/31 10:06:55;;;;;;;5.33;4.43;;;18.60;99.90;;;;;;5030080;28;20209;-64
2023/07/31 10:09:26;;;;;;;6.97;4.67;;;18.60;99.90;;;;;;5028431;28;20225;-64
2023/07/31 10:12:01;;;;;;;7.07;4.77;;;18.60;99.90;;;;;;5028858;28;20228;-65
2023/07/31 10:14:31;;;;;;;7.80;5.27;;;18.70;99.90;;;;;;5022206;28;20295;-64
2023/07/31 10:16:59;;;;;;;6.10;4.40;;;18.80;99.90;;;;;;5026537;28;20272;-64
2023/07/31 10:19:30;;;;;;;7.23;4.83;;;18.90;99.90;;;;;;5022197;28;20217;-64
2023/07/31 10:22:03;;;;;;;11.00;4.80;;;18.90;99.90;;;;;;5026838;28;20571;-64
2023/07/31 10:24:33;;;;;;;10.47;5.17;;;18.90;99.90;;;;;;5023453;28;20324;-64
2023/07/31 10:27:04;;;;;;;9.63;4.90;;;18.90;99.90;;;;;;5008766;28;20217;-64
2023/07/31 10:29:33;;;;;;;8.00;4.73;;;18.90;99.90;;;;;;5028471;28;20324;-64
2023/07/31 10:32:02;;;;;;;8.33;5.10;;;19.00;99.90;;;;;;5029586;28;20189;-64
2023/07/31 10:34:31;;;;;;;7.77;5.10;;;19.00;99.90;;;;;;5027456;28;20251;-64
2023/07/31 10:37:21;;;;;;;10.70;5.40;;;19.20;99.90;;;;;;5026206;28;20225;-64
2023/07/31 10:39:57;;;;;;;9.60;4.97;;;19.20;99.90;;;;;;5024584;28;20225;-64
2023/07/31 10:42:32;;;;;;;10.23;4.87;;;19.20;99.90;;;;;;4997732;28;20230;-64
2023/07/31 10:45:02;;;;;;;6.93;4.97;;;19.20;99.90;;;;;;5000305;28;21118;-64
2023/07/31 10:47:30;;;;;;;12.30;5.00;;;19.20;99.90;;;;;;5003809;28;20260;-64
2023/07/31 10:50:18;;;;;;;9.77;4.93;;;19.30;99.90;;;;;;5004157;28;20838;-64
2023/07/31 10:52:51;;;;;;;9.37;5.13;;;19.30;99.90;;;;;;5020498;28;20231;-65
2023/07/31 10:55:30;;;;;;;14.87;4.93;;;19.50;99.90;;;;;;5026272;28;20221;-64
2023/07/31 10:58:14;;;;;;;11.70;4.80;;;19.60;99.90;;;;;;5022217;28;20274;-65
2023/07/31 11:00:43;;;;;;;9.80;4.50;;;19.70;99.90;;;;;;5020822;28;20217;-65
2023/07/31 11:03:14;;;;;;;8.60;4.67;;;19.60;99.90;;;;;;5023370;28;20240;-65
2023/07/31 11:05:45;;;;;;;7.40;5.07;;;19.70;99.90;;;;;;5024404;28;20229;-64
2023/07/31 11:08:15;;;;;;;5.93;4.70;;;19.70;99.90;;;;;;5028992;28;20206;-64
2023/07/31 11:10:44;;;;;;;6.60;5.07;;;19.70;99.90;;;;;;5025194;28;20206;-65
2023/07/31 11:13:14;;;;;;;6.27;4.60;;;19.60;99.90;;;;;;5024282;28;20226;-65
2023/07/31 11:15:42;;;;;;;9.53;5.03;;;19.50;99.90;;;;;;5018675;28;21437;-65
2023/07/31 11:18:11;;;;;;;9.40;5.07;;;19.60;99.90;;;;;;5016443;28;20335;-65
2023/07/31 11:20:40;;;;;;;9.13;5.03;;;19.60;99.90;;;;;;5028679;28;20223;-65
2023/07/31 11:23:11;;;;;;;6.13;5.03;;;19.60;99.90;;;;;;5020131;28;20194;-63
2023/07/31 11:25:41;;;;;;;9.07;5.20;;;19.60;99.90;;;;;;5028457;28;20305;-65
2023/07/31 11:28:11;;;;;;;9.83;5.60;;;19.40;99.90;;;;;;5027028;28;20217;-63
2023/07/31 11:30:42;;;;;;;8.87;5.60;;;19.40;99.90;;;;;;5027290;28;20368;-64
2023/07/31 11:33:14;;;;;;;14.70;5.80;;;19.40;99.90;;;;;;5024183;28;20747;-65
2023/07/31 11:35:45;;;;;;;12.20;5.53;;;19.30;99.90;;;;;;5022387;28;20244;-64
2023/07/31 11:38:22;;;;;;;9.43;5.47;;;19.20;99.90;;;;;;5026656;28;20186;-64
2023/07/31 11:40:52;;;;;;;10.47;6.00;;;19.20;99.90;;;;;;5026515;28;20192;-64
2023/07/31 11:43:21;;;;;;;10.17;5.70;;;19.30;99.90;;;;;;5025460;28;20225;-64
2023/07/31 11:45:55;;;;;;;12.37;5.40;;;19.30;99.90;;;;;;5026082;28;20279;-64
2023/07/31 11:48:26;;;;;;;10.53;4.97;;;19.40;99.90;;;;;;5025687;28;20224;-64
2023/07/31 11:50:57;;;;;;;9.53;5.53;;;19.50;99.90;;;;;;5028073;28;20209;-64
2023/07/31 11:53:30;;;;;;;7.10;4.87;;;19.60;99.90;;;;;;5026324;28;20244;-64
2023/07/31 11:56:00;;;;;;;13.73;5.87;;;19.80;99.90;;;;;;5022417;28;20710;-64
2023/07/31 11:58:30;;;;;;;14.33;5.83;;;19.90;99.90;;;;;;5022251;28;20217;-65
2023/07/31 12:01:00;;;;;;;8.57;4.60;;;20.00;99.90;;;;;;5023150;28;20225;-64
2023/07/31 12:03:28;;;;;;;7.13;4.87;;;20.10;99.90;;;;;;5027090;28;20221;-64
2023/07/31 12:05:57;;;;;;;5.97;5.00;;;20.10;99.90;;;;;;5010577;28;20237;-64
2023/07/31 12:08:26;;;;;;;9.17;4.77;;;20.10;99.90;;;;;;5026983;28;20676;-64
2023/07/31 12:10:55;;;;;;;10.27;4.90;;;20.10;99.90;;;;;;5028191;28;20194;-64
2023/07/31 12:13:26;;;;;;;12.13;4.87;;;20.00;99.90;;;;;;5026581;28;20307;-64
2023/07/31 12:15:57;;;;;;;5.43;4.50;;;20.00;99.90;;;;;;5026173;28;20217;-64
2023/07/31 12:18:28;;;;;;;10.53;5.17;;;19.90;99.90;;;;;;5021400;28;20233;-64
2023/07/31 12:20:59;;;;;;;8.57;4.90;;;20.00;99.90;;;;;;5022871;28;20230;-64
2023/07/31 12:23:29;;;;;;;6.53;4.80;;;19.90;99.90;;;;;;5020422;28;20189;-64
2023/07/31 12:26:05;;;;;;;7.70;4.77;;;20.00;99.90;;;;;;4997200;28;20677;-64
2023/07/31 12:28:37;;;;;;;5.93;4.50;;;20.10;99.90;;;;;;5019844;28;20225;-64
2023/07/31 12:31:07;;;;;;;8.47;4.77;;;20.30;99.90;;;;;;5025910;28;20643;-64
2023/07/31 12:33:38;;;;;;;6.20;4.57;;;20.40;99.90;;;;;;5025980;28;20236;-64
2023/07/31 12:36:10;;;;;;;10.83;4.97;;;20.40;99.90;;;;;;5024880;28;20233;-64
2023/07/31 12:38:38;;;;;;;8.90;4.70;;;20.20;99.90;;;;;;5016099;28;20213;-65
2023/07/31 12:41:07;;;;;;;7.87;5.30;;;20.10;99.90;;;;;;5026886;28;20186;-65
2023/07/31 12:43:35;;;;;;;9.70;5.23;;;20.10;99.90;;;;;;5018311;28;20237;-64
2023/07/31 12:46:04;;;;;;;12.20;5.70;;;20.00;99.90;;;;;;5029545;28;20271;-64
2023/07/31 12:48:33;;;;;;;8.67;5.57;;;19.80;99.90;;;;;;5026245;28;20213;-64
2023/07/31 12:51:03;;;;;;;5.97;4.83;;;19.50;99.90;;;;;;5016813;28;20223;-64
2023/07/31 12:53:31;;;;;;;8.30;4.73;;;19.30;99.90;;;;;;5026265;28;20229;-65
2023/07/31 12:56:00;;;;;;;9.13;5.50;;;19.10;99.90;;;;;;5024701;28;20228;-66